createdAt,value
2019-03-10T00:00:06.026Z,24.73
2019-03-10T00:02:33.306Z,23.10
2019-03-10T00:04:59.506Z,26.57
2019-03-10T00:07:25.730Z,25.87
2019-03-10T00:09:51.936Z,25.73
2019-03-10T00:12:18.175Z,23.13
2019-03-10T00:14:44.392Z,22.67
2019-03-10T00:17:10.988Z,20.90
2019-03-10T00:19:37.191Z,26.70
2019-03-10T00:22:04.622Z,21.03
2019-03-10T00:24:30.922Z,26.07
2019-03-10T00:26:57.146Z,23.23
2019-03-10T00:29:23.365Z,24.97
2019-03-10T00:31:49.682Z,19.00
2019-03-10T00:34:16.874Z,22.10
2019-03-10T00:36:43.574Z,22.47
2019-03-10T00:39:22.617Z,17.27
2019-03-10T00:42:21.786Z,21.17
2019-03-10T00:45:11.462Z,24.80
2019-03-10T00:47:56.851Z,17.60
2019-03-10T00:50:26.850Z,18.70
2019-03-10T00:53:00.137Z,22.30
2019-03-10T00:55:26.847Z,26.73
2019-03-10T00:57:53.290Z,21.73
2019-03-10T01:00:19.594Z,21.10
2019-03-10T01:02:45.918Z,23.87
2019-03-10T01:05:12.198Z,20.27
2019-03-10T01:07:38.431Z,22.97
2019-03-10T01:10:06.041Z,26.03
2019-03-10T01:12:32.667Z,25.93
2019-03-10T01:14:58.981Z,24.47
2019-03-10T01:17:25.794Z,21.10
2019-03-10T01:19:52.417Z,21.90
2019-03-10T01:22:20.023Z,21.67
2019-03-10T01:24:46.234Z,22.87
2019-03-10T01:27:12.451Z,22.83
2019-03-10T01:29:38.922Z,23.13
2019-03-10T01:32:24.154Z,22.60
2019-03-10T01:34:59.746Z,22.30
2019-03-10T01:37:25.947Z,26.37
2019-03-10T01:39:52.159Z,20.07
2019-03-10T01:42:18.356Z,23.60
2019-03-10T01:44:44.584Z,21.47
2019-03-10T01:47:10.886Z,20.73
2019-03-10T01:49:37.102Z,21.73
2019-03-10T01:52:03.510Z,22.37
2019-03-10T01:54:29.803Z,23.13
2019-03-10T01:56:56.002Z,21.70
2019-03-10T01:59:22.231Z,15.57
2019-03-10T02:01:48.622Z,20.83
2019-03-10T02:04:14.843Z,20.27
2019-03-10T02:06:41.077Z,20.00
2019-03-10T02:09:07.863Z,22.63
2019-03-10T02:11:34.067Z,26.57
2019-03-10T02:14:00.298Z,18.57
2019-03-10T02:16:26.494Z,16.57
2019-03-10T02:18:52.738Z,19.33
2019-03-10T02:21:19.224Z,24.70
2019-03-10T02:23:45.431Z,14.80
2019-03-10T02:26:11.670Z,17.40
2019-03-10T02:28:37.874Z,19.87
2019-03-10T02:31:04.092Z,15.70
2019-03-10T02:33:30.306Z,17.93
2019-03-10T02:35:56.524Z,18.73
2019-03-10T02:38:22.727Z,10.53
2019-03-10T02:40:48.947Z,11.70
2019-03-10T02:43:15.153Z,14.03
2019-03-10T02:45:41.476Z,17.13
2019-03-10T02:48:08.607Z,13.07
2019-03-10T02:50:34.828Z,9.70
2019-03-10T02:53:01.073Z,9.87
2019-03-10T02:55:27.327Z,13.57
2019-03-10T02:57:53.541Z,12.63
2019-03-10T03:00:19.753Z,13.30
2019-03-10T03:02:45.987Z,13.13
2019-03-10T03:05:12.322Z,14.33
2019-03-10T03:07:38.625Z,12.00
2019-03-10T03:10:11.218Z,8.20
2019-03-10T03:12:37.445Z,11.60
2019-03-10T03:15:05.455Z,11.17
2019-03-10T03:17:31.675Z,10.77
2019-03-10T03:19:57.885Z,11.07
2019-03-10T03:22:24.091Z,11.27
2019-03-10T03:24:50.356Z,13.77
2019-03-10T03:27:18.644Z,7.03
2019-03-10T03:29:44.851Z,9.73
2019-03-10T03:32:11.096Z,8.57
2019-03-10T03:34:37.368Z,8.10
2019-03-10T03:37:03.696Z,10.13
2019-03-10T03:39:31.706Z,8.73
2019-03-10T03:41:57.924Z,12.10
2019-03-10T03:44:24.501Z,6.50
2019-03-10T03:46:50.724Z,9.20
2019-03-10T03:49:17.300Z,8.47
2019-03-10T03:51:43.500Z,6.30
2019-03-10T03:54:09.723Z,8.23
2019-03-10T03:56:35.927Z,11.80
2019-03-10T03:59:02.253Z,9.57
2019-03-10T04:01:39.456Z,11.17
2019-03-10T04:04:05.675Z,6.90
2019-03-10T04:06:31.943Z,8.90
2019-03-10T04:08:58.170Z,9.67
2019-03-10T04:11:24.423Z,8.60
2019-03-10T04:13:50.698Z,5.57
2019-03-10T04:16:16.910Z,6.57
2019-03-10T04:18:43.123Z,6.60
2019-03-10T04:21:09.381Z,9.60
2019-03-10T04:23:38.784Z,7.07
2019-03-10T04:26:05.009Z,5.50
2019-03-10T04:28:31.222Z,6.50
2019-03-10T04:30:57.459Z,7.60
2019-03-10T04:33:23.851Z,6.60
2019-03-10T04:35:50.071Z,6.67
2019-03-10T04:38:16.283Z,6.10
2019-03-10T04:40:42.490Z,7.40
2019-03-10T04:43:08.710Z,9.70
2019-03-10T04:45:34.902Z,7.03
2019-03-10T04:48:01.127Z,8.17
2019-03-10T04:50:27.547Z,7.20
2019-03-10T04:52:54.027Z,7.77
2019-03-10T04:55:22.167Z,8.37
2019-03-10T04:57:59.327Z,11.17
2019-03-10T05:00:25.535Z,7.27
2019-03-10T05:02:51.734Z,9.83
2019-03-10T05:05:17.953Z,9.70
2019-03-10T05:07:44.310Z,8.97
2019-03-10T05:10:10.538Z,12.47
2019-03-10T05:12:36.747Z,6.33
2019-03-10T05:15:04.831Z,9.70
2019-03-10T05:17:31.027Z,8.60
2019-03-10T05:19:57.251Z,13.53
2019-03-10T05:22:23.480Z,11.33
2019-03-10T05:24:50.016Z,9.60
2019-03-10T05:27:16.302Z,9.40
2019-03-10T05:29:42.528Z,11.80
2019-03-10T05:32:08.731Z,9.43
2019-03-10T05:34:35.055Z,10.37
2019-03-10T05:37:01.250Z,8.70
2019-03-10T05:39:27.507Z,11.83
2019-03-10T05:41:53.698Z,8.07
2019-03-10T05:44:19.906Z,9.10
2019-03-10T05:46:46.163Z,9.47
2019-03-10T05:49:12.371Z,9.07
2019-03-10T05:51:38.595Z,7.70
2019-03-10T05:54:04.815Z,8.70
2019-03-10T05:56:31.019Z,11.47
2019-03-10T05:58:57.238Z,11.13
2019-03-10T06:01:23.471Z,9.37
2019-03-10T06:03:49.808Z,14.07
2019-03-10T06:06:16.014Z,9.93
2019-03-10T06:08:42.210Z,11.70
2019-03-10T06:11:08.427Z,10.67
2019-03-10T06:13:34.634Z,12.17
2019-03-10T06:16:00.974Z,10.10
2019-03-10T06:18:27.294Z,13.23
2019-03-10T06:20:53.520Z,13.03
2019-03-10T06:23:19.751Z,10.80
2019-03-10T06:25:46.716Z,12.77
2019-03-10T06:28:13.044Z,16.93
2019-03-10T06:30:39.276Z,12.70
2019-03-10T06:33:05.513Z,13.73
2019-03-10T06:35:31.755Z,15.03
2019-03-10T06:37:58.010Z,16.33
2019-03-10T06:40:31.602Z,8.90
2019-03-10T06:42:52.366Z,11.07
2019-03-10T06:45:18.687Z,9.70
2019-03-10T06:47:45.026Z,15.43
2019-03-10T06:50:12.866Z,11.10
2019-03-10T06:52:39.086Z,13.27
2019-03-10T06:55:05.490Z,13.13
2019-03-10T06:57:31.738Z,14.63
2019-03-10T06:59:57.978Z,11.53
2019-03-10T07:02:24.386Z,93.43
2019-03-10T07:04:50.639Z,17.07
2019-03-10T07:07:16.995Z,12.17
2019-03-10T07:09:43.405Z,8.80
2019-03-10T07:12:09.634Z,13.20
2019-03-10T07:14:35.850Z,14.93
2019-03-10T07:17:02.083Z,15.80
2019-03-10T07:19:28.475Z,11.43
2019-03-10T07:21:54.738Z,11.17
2019-03-10T07:24:20.960Z,15.60
2019-03-10T07:26:47.188Z,14.27
2019-03-10T07:29:27.356Z,12.77
2019-03-10T07:31:58.209Z,12.13
2019-03-10T07:34:38.393Z,17.13
2019-03-10T07:37:21.638Z,13.50
2019-03-10T07:40:08.238Z,11.60
2019-03-10T07:42:39.150Z,9.47
2019-03-10T07:45:09.451Z,14.63
2019-03-10T07:47:54.194Z,9.07
2019-03-10T07:50:25.050Z,8.33
2019-03-10T07:52:59.182Z,7.80
2019-03-10T07:55:27.877Z,7.20
2019-03-10T07:57:57.055Z,7.90
2019-03-10T08:00:31.437Z,4.63
2019-03-10T08:03:08.838Z,7.53
2019-03-10T08:05:39.739Z,5.37
2019-03-10T08:08:07.898Z,1.40
2019-03-10T08:10:42.326Z,0.97
2019-03-10T08:13:16.651Z,0.63
2019-03-10T08:15:50.644Z,1.97
2019-03-10T08:18:21.551Z,0.90
2019-03-10T08:20:49.750Z,0.90
2019-03-10T08:23:21.026Z,0.40
2019-03-10T08:25:49.254Z,1.20
2019-03-10T08:28:29.740Z,8.73
2019-03-10T08:31:14.630Z,0.50
2019-03-10T08:33:45.527Z,0.70
2019-03-10T08:36:13.965Z,0.40
2019-03-10T08:38:44.932Z,0.50
2019-03-10T08:41:15.830Z,0.60
2019-03-10T08:43:49.809Z,0.40
2019-03-10T08:46:24.155Z,0.70
2019-03-10T08:49:10.051Z,0.83
2019-03-10T08:51:56.853Z,0.93
2019-03-10T08:54:34.129Z,1.23
2019-03-10T08:57:04.880Z,0.93
2019-03-10T08:59:38.978Z,0.70
2019-03-10T09:02:19.793Z,1.30
2019-03-10T09:05:00.365Z,1.73
2019-03-10T09:07:34.610Z,5.87
2019-03-10T09:10:14.723Z,2.47
2019-03-10T09:12:42.851Z,1.83
2019-03-10T09:15:23.601Z,5.53
2019-03-10T09:17:57.859Z,2.10
2019-03-10T09:20:29.226Z,3.63
2019-03-10T09:23:09.372Z,1.93
2019-03-10T09:25:46.534Z,3.43
2019-03-10T09:28:29.835Z,3.40
2019-03-10T09:31:00.819Z,3.43
2019-03-10T09:33:44.387Z,1.87
2019-03-10T09:36:18.571Z,2.30
2019-03-10T09:38:46.707Z,1.50
2019-03-10T09:41:17.771Z,3.27
2019-03-10T09:44:01.063Z,1.73
2019-03-10T09:46:29.162Z,4.57
2019-03-10T09:49:13.404Z,2.83
2019-03-10T09:51:58.009Z,7.73
2019-03-10T09:54:28.925Z,3.70
2019-03-10T09:56:59.790Z,4.57
2019-03-10T09:59:27.925Z,3.83
2019-03-10T10:02:08.044Z,3.50
2019-03-10T10:04:36.258Z,3.03
2019-03-10T10:07:21.227Z,3.00
2019-03-10T10:09:49.486Z,4.87
2019-03-10T10:12:20.632Z,3.40
2019-03-10T10:14:48.900Z,4.23
2019-03-10T10:17:23.025Z,5.97
2019-03-10T10:20:06.519Z,7.17
2019-03-10T10:22:49.463Z,7.40
2019-03-10T10:25:32.830Z,6.07
2019-03-10T10:28:04.011Z,4.70
2019-03-10T10:30:48.730Z,15.67
2019-03-10T10:33:29.290Z,6.13
2019-03-10T10:35:57.399Z,5.50
2019-03-10T10:38:25.602Z,4.13
2019-03-10T10:40:59.982Z,5.53
2019-03-10T10:43:28.255Z,3.90
2019-03-10T10:45:56.863Z,7.83
2019-03-10T10:48:42.285Z,6.00
2019-03-10T10:51:10.948Z,5.43
2019-03-10T10:53:39.884Z,5.53
2019-03-10T10:56:14.083Z,6.00
2019-03-10T10:58:45.295Z,7.17
2019-03-10T11:01:13.407Z,6.03
2019-03-10T11:03:41.528Z,5.00
2019-03-10T11:06:19.802Z,34.73
2019-03-10T11:09:09.768Z,7.30
2019-03-10T11:11:54.706Z,8.60
2019-03-10T11:14:31.835Z,10.33
2019-03-10T11:17:05.734Z,5.27
2019-03-10T11:19:52.166Z,7.37
2019-03-10T11:22:20.427Z,6.30
2019-03-10T11:24:48.590Z,6.57
2019-03-10T11:27:22.515Z,7.50
2019-03-10T11:29:53.885Z,10.10
2019-03-10T11:32:40.137Z,9.73
2019-03-10T11:35:14.362Z,8.63
2019-03-10T11:37:51.922Z,8.47
2019-03-10T11:40:23.323Z,9.60
2019-03-10T11:42:51.448Z,10.93
2019-03-10T11:45:28.337Z,12.03
2019-03-10T11:48:14.819Z,11.07
2019-03-10T11:50:45.516Z,12.20
2019-03-10T11:53:20.001Z,15.23
2019-03-10T11:55:54.220Z,10.50
2019-03-10T11:58:34.650Z,9.87
2019-03-10T12:01:03.276Z,14.23
2019-03-10T12:03:37.807Z,12.30
2019-03-10T12:06:06.366Z,13.87
2019-03-10T12:08:34.987Z,12.77
2019-03-10T12:11:01.594Z,15.03
2019-03-10T12:13:28.216Z,11.77
2019-03-10T12:15:54.838Z,13.93
2019-03-10T12:18:21.036Z,17.70
2019-03-10T12:20:47.366Z,14.37
2019-03-10T12:23:13.662Z,10.60
2019-03-10T12:25:39.991Z,13.70
2019-03-10T12:28:06.341Z,12.47
2019-03-10T12:30:32.599Z,9.37
2019-03-10T12:32:58.802Z,8.70
2019-03-10T12:35:33.900Z,5.67
2019-03-10T12:37:53.132Z,6.67
2019-03-10T12:40:19.354Z,10.07
2019-03-10T12:42:45.572Z,8.23
2019-03-10T12:45:12.116Z,10.00
2019-03-10T12:47:38.345Z,10.73
2019-03-10T12:50:11.914Z,10.97
2019-03-10T12:52:38.287Z,10.20
2019-03-10T12:55:06.820Z,12.83
2019-03-10T12:57:33.158Z,10.50
2019-03-10T12:59:59.371Z,9.83
2019-03-10T13:02:25.616Z,10.93
2019-03-10T13:04:51.922Z,11.40
2019-03-10T13:07:18.173Z,12.13
2019-03-10T13:09:44.586Z,11.90
2019-03-10T13:12:11.170Z,9.83
2019-03-10T13:14:37.383Z,10.40
2019-03-10T13:17:03.602Z,12.33
2019-03-10T13:19:29.932Z,10.80
2019-03-10T13:21:56.174Z,10.87
2019-03-10T13:24:22.444Z,13.10
2019-03-10T13:26:48.773Z,9.17
2019-03-10T13:29:15.018Z,9.87
2019-03-10T13:31:41.290Z,11.70
2019-03-10T13:34:07.576Z,12.40
2019-03-10T13:36:33.770Z,8.70
2019-03-10T13:38:59.992Z,10.90
2019-03-10T13:41:26.214Z,6.63
2019-03-10T13:43:52.431Z,7.70
2019-03-10T13:46:18.980Z,8.27
2019-03-10T13:48:45.562Z,8.27
2019-03-10T13:51:12.018Z,5.50
2019-03-10T13:53:38.370Z,5.37
2019-03-10T13:56:04.590Z,4.07
2019-03-10T13:58:30.924Z,1.30
2019-03-10T14:00:57.300Z,3.00
2019-03-10T14:03:23.508Z,2.40
2019-03-10T14:05:49.827Z,4.40
2019-03-10T14:08:16.375Z,3.40
2019-03-10T14:10:42.580Z,3.00
2019-03-10T14:13:08.799Z,2.57
2019-03-10T14:15:35.521Z,4.50
2019-03-10T14:18:01.842Z,4.27
2019-03-10T14:20:28.045Z,4.70
2019-03-10T14:22:54.322Z,2.10
2019-03-10T14:25:20.771Z,2.87
2019-03-10T14:27:47.132Z,3.83
2019-03-10T14:30:15.856Z,3.60
2019-03-10T14:32:43.783Z,3.77
2019-03-10T14:35:10.571Z,2.23
2019-03-10T14:37:36.796Z,4.23
2019-03-10T14:40:06.846Z,2.80
2019-03-10T14:42:33.055Z,3.60
2019-03-10T14:44:59.278Z,4.07
2019-03-10T14:47:26.552Z,4.60
2019-03-10T14:49:52.766Z,1.63
2019-03-10T14:52:25.757Z,2.20
2019-03-10T14:54:52.018Z,2.73
2019-03-10T14:57:18.285Z,2.27
2019-03-10T14:59:44.495Z,1.97
2019-03-10T15:02:10.722Z,3.87
2019-03-10T15:04:36.947Z,2.27
2019-03-10T15:07:03.409Z,3.27
2019-03-10T15:09:29.838Z,3.43
2019-03-10T15:11:56.129Z,2.77
2019-03-10T15:14:22.537Z,5.70
2019-03-10T15:16:49.116Z,3.37
2019-03-10T15:19:15.325Z,2.13
2019-03-10T15:21:42.878Z,2.93
2019-03-10T15:24:09.078Z,1.20
2019-03-10T15:26:45.240Z,1.43
2019-03-10T15:29:03.541Z,0.70
2019-03-10T15:31:29.768Z,3.23
2019-03-10T15:33:56.064Z,1.03
2019-03-10T15:36:22.279Z,1.33
2019-03-10T15:38:48.483Z,1.50
2019-03-10T15:41:14.721Z,1.77
2019-03-10T15:43:40.929Z,1.40
2019-03-10T15:46:07.179Z,1.20
2019-03-10T15:48:33.384Z,3.37
2019-03-10T15:50:59.583Z,1.40
2019-03-10T15:53:25.823Z,0.93
2019-03-10T15:55:52.069Z,1.57
2019-03-10T15:58:18.605Z,1.07
2019-03-10T16:00:45.117Z,2.87
2019-03-10T16:03:11.454Z,1.73
2019-03-10T16:05:37.736Z,1.13
2019-03-10T16:08:04.162Z,2.57
2019-03-10T16:10:30.382Z,2.47
2019-03-10T16:12:56.830Z,2.20
2019-03-10T16:15:27.286Z,2.20
2019-03-10T16:17:53.515Z,3.10
2019-03-10T16:20:19.939Z,3.90
2019-03-10T16:22:49.009Z,1.77
2019-03-10T16:25:16.419Z,2.00
2019-03-10T16:27:42.809Z,2.40
2019-03-10T16:30:20.471Z,3.03
2019-03-10T16:32:46.768Z,1.97
2019-03-10T16:35:14.103Z,2.93
2019-03-10T16:37:41.006Z,3.23
2019-03-10T16:40:09.950Z,1.67
2019-03-10T16:42:36.155Z,1.17
2019-03-10T16:45:03.166Z,2.50
2019-03-10T16:47:29.371Z,1.27
2019-03-10T16:49:55.593Z,6.53
2019-03-10T16:52:21.823Z,2.17
2019-03-10T16:54:48.018Z,1.93
2019-03-10T16:57:14.310Z,6.90
2019-03-10T16:59:40.538Z,3.53
2019-03-10T17:02:06.858Z,3.87
2019-03-10T17:04:33.067Z,1.77
2019-03-10T17:06:59.290Z,2.93
2019-03-10T17:09:25.542Z,1.77
2019-03-10T17:11:51.854Z,2.77
2019-03-10T17:14:18.064Z,3.10
2019-03-10T17:16:44.426Z,2.00
2019-03-10T17:19:10.630Z,2.57
2019-03-10T17:21:36.887Z,1.03
2019-03-10T17:24:03.223Z,1.37
2019-03-10T17:26:29.565Z,2.67
2019-03-10T17:28:55.979Z,1.53
2019-03-10T17:31:22.182Z,2.17
2019-03-10T17:33:48.546Z,1.67
2019-03-10T17:36:14.784Z,2.53
2019-03-10T17:38:41.126Z,2.23
2019-03-10T17:41:07.335Z,2.50
2019-03-10T17:43:33.546Z,1.10
2019-03-10T17:45:59.756Z,2.00
2019-03-10T17:48:26.293Z,4.23
2019-03-10T17:50:52.494Z,2.83
2019-03-10T17:53:18.761Z,1.73
2019-03-10T17:55:44.987Z,2.07
2019-03-10T17:58:11.463Z,4.20
2019-03-10T18:00:39.089Z,2.00
2019-03-10T18:03:05.294Z,1.30
2019-03-10T18:05:31.660Z,3.33
2019-03-10T18:07:58.083Z,2.20
2019-03-10T18:10:24.603Z,1.90
2019-03-10T18:12:50.821Z,2.73
2019-03-10T18:15:17.550Z,3.67
2019-03-10T18:17:44.076Z,3.00
2019-03-10T18:20:15.395Z,3.73
2019-03-10T18:22:41.825Z,2.73
2019-03-10T18:25:14.273Z,3.97
2019-03-10T18:27:40.823Z,1.97
2019-03-10T18:30:20.925Z,2.80
2019-03-10T18:32:47.258Z,2.50
2019-03-10T18:35:13.658Z,2.20
2019-03-10T18:37:40.086Z,2.10
2019-03-10T18:40:09.990Z,2.83
2019-03-10T18:42:36.206Z,2.83
2019-03-10T18:45:05.074Z,7.23
2019-03-10T18:47:31.287Z,4.93
2019-03-10T18:49:57.971Z,1.87
2019-03-10T18:52:24.196Z,3.77
2019-03-10T18:54:51.522Z,3.47
2019-03-10T18:57:18.526Z,3.97
2019-03-10T18:59:44.731Z,1.87
2019-03-10T19:02:10.959Z,1.73
2019-03-10T19:04:37.158Z,3.80
2019-03-10T19:07:03.467Z,1.77
2019-03-10T19:09:29.685Z,4.40
2019-03-10T19:11:55.892Z,1.10
2019-03-10T19:14:26.927Z,1.83
2019-03-10T19:16:53.231Z,2.33
2019-03-10T19:19:19.471Z,2.80
2019-03-10T19:21:45.693Z,1.93
2019-03-10T19:24:12.011Z,2.10
2019-03-10T19:26:56.162Z,2.23
2019-03-10T19:29:22.382Z,2.07
2019-03-10T19:31:48.594Z,1.73
2019-03-10T19:34:14.815Z,3.33
2019-03-10T19:36:41.014Z,5.43
2019-03-10T19:39:07.213Z,2.70
2019-03-10T19:41:33.456Z,2.57
2019-03-10T19:43:59.923Z,1.73
2019-03-10T19:46:26.236Z,5.83
2019-03-10T19:49:12.556Z,4.20
2019-03-10T19:51:38.795Z,3.07
2019-03-10T19:54:05.001Z,7.17
2019-03-10T19:56:31.235Z,3.30
2019-03-10T19:58:57.439Z,4.53
2019-03-10T20:01:23.675Z,3.53
2019-03-10T20:03:49.908Z,3.13
2019-03-10T20:06:16.236Z,2.30
2019-03-10T20:08:42.549Z,4.27
2019-03-10T20:11:08.761Z,3.17
2019-03-10T20:13:34.970Z,2.47
2019-03-10T20:16:01.470Z,2.53
2019-03-10T20:18:27.732Z,1.77
2019-03-10T20:20:54.039Z,16.53
2019-03-10T20:23:20.267Z,7.33
2019-03-10T20:25:46.479Z,3.23
2019-03-10T20:28:12.703Z,3.67
2019-03-10T20:30:38.902Z,2.03
2019-03-10T20:33:05.139Z,1.77
2019-03-10T20:35:31.356Z,5.33
2019-03-10T20:37:57.685Z,4.13
2019-03-10T20:40:25.087Z,3.20
2019-03-10T20:42:56.885Z,3.07
2019-03-10T20:45:24.608Z,2.53
2019-03-10T20:47:51.359Z,4.00
2019-03-10T20:50:19.458Z,1.37
2019-03-10T20:52:45.917Z,0.90
2019-03-10T20:55:12.914Z,0.93
2019-03-10T20:57:39.136Z,1.37
2019-03-10T21:00:08.964Z,1.17
2019-03-10T21:02:35.167Z,2.73
2019-03-10T21:05:01.475Z,2.20
2019-03-10T21:07:27.695Z,2.27
2019-03-10T21:09:53.902Z,1.97
2019-03-10T21:12:20.107Z,4.47
2019-03-10T21:14:46.446Z,1.67
2019-03-10T21:17:12.672Z,1.67
2019-03-10T21:19:38.891Z,3.43
2019-03-10T21:22:05.125Z,1.90
2019-03-10T21:24:31.618Z,1.60
2019-03-10T21:26:57.895Z,2.07
2019-03-10T21:29:24.120Z,2.20
2019-03-10T21:31:50.327Z,2.73
2019-03-10T21:34:16.567Z,3.33
2019-03-10T21:37:01.167Z,2.77
2019-03-10T21:39:34.567Z,4.67
2019-03-10T21:41:55.495Z,4.37
2019-03-10T21:44:26.609Z,7.13
2019-03-10T21:46:50.127Z,11.20
2019-03-10T21:49:16.436Z,5.47
2019-03-10T21:51:42.759Z,5.47
2019-03-10T21:54:08.991Z,6.63
2019-03-10T21:56:35.212Z,7.30
2019-03-10T21:59:01.486Z,9.57
2019-03-10T22:01:27.820Z,5.23
2019-03-10T22:03:54.056Z,4.47
2019-03-10T22:06:20.594Z,6.07
2019-03-10T22:08:46.827Z,7.37
2019-03-10T22:11:13.063Z,8.57
2019-03-10T22:13:46.587Z,6.33
2019-03-10T22:16:07.394Z,11.40
2019-03-10T22:18:33.594Z,8.10
2019-03-10T22:20:59.847Z,5.60
2019-03-10T22:23:26.447Z,11.37
2019-03-10T22:25:52.656Z,6.90
2019-03-10T22:28:18.856Z,6.13
2019-03-10T22:30:45.078Z,8.00
2019-03-10T22:33:11.287Z,8.67
2019-03-10T22:35:37.487Z,11.03
2019-03-10T22:38:03.731Z,8.60
2019-03-10T22:40:30.087Z,13.67
2019-03-10T22:42:56.581Z,9.43
2019-03-10T22:45:22.948Z,10.70
2019-03-10T22:47:49.167Z,6.27
2019-03-10T22:50:16.159Z,10.07
2019-03-10T22:52:42.783Z,7.37
2019-03-10T22:55:10.183Z,8.33
2019-03-10T22:57:36.691Z,10.53
2019-03-10T23:00:25.760Z,8.77
2019-03-10T23:02:52.169Z,11.87
2019-03-10T23:05:18.471Z,8.23
2019-03-10T23:07:44.711Z,7.63
2019-03-10T23:10:12.718Z,14.83
2019-03-10T23:12:39.387Z,9.97
2019-03-10T23:15:08.198Z,9.73
2019-03-10T23:17:34.481Z,7.47
2019-03-10T23:20:00.689Z,8.63
2019-03-10T23:22:27.186Z,7.47
2019-03-10T23:24:53.481Z,10.73
2019-03-10T23:27:19.691Z,13.67
2019-03-10T23:29:45.915Z,11.57
2019-03-10T23:32:12.122Z,12.20
2019-03-10T23:34:38.621Z,10.20
2019-03-10T23:37:04.850Z,8.00
2019-03-10T23:39:31.118Z,15.10
2019-03-10T23:41:57.327Z,7.60
2019-03-10T23:44:23.559Z,11.43
2019-03-10T23:46:49.761Z,10.47
2019-03-10T23:49:15.959Z,12.93
2019-03-10T23:51:42.195Z,6.77
2019-03-10T23:54:08.384Z,12.20
2019-03-10T23:56:34.590Z,14.70
2019-03-10T23:59:00.819Z,12.93
